Time;durP1;ratioP1;P1;durP2;ratioP2;P2;SDS_P1;SDS_P2;PMS_P1;PMS_P2;Temp;Humidity;BMP_temperature;BMP_pressure;BME280_temperature;BME280_humidity;BME280_pressure;Samples;Min_cycle;Max_cycle;Signal;HPM_P1;HPM_P2
2022/05/26 00:02:00;;;;;;;5.50;1.23;;;17.40;67.40;;;;;;5042096;28;20495;-75
2022/05/26 00:04:27;;;;;;;11.85;1.65;;;17.40;67.30;;;;;;5015348;28;20739;-75
2022/05/26 00:06:53;;;;;;;4.53;1.63;;;17.40;67.00;;;;;;5015818;28;20026;-75
2022/05/26 00:09:19;;;;;;;6.53;1.30;;;17.30;67.40;;;;;;5015922;28;20030;-78
2022/05/26 00:11:44;;;;;;;5.05;1.73;;;17.30;67.30;;;;;;5015832;28;20109;-74
2022/05/26 00:14:11;;;;;;;2.70;1.27;;;17.30;66.90;;;;;;5014944;28;20018;-74
2022/05/26 00:16:44;;;;;;;2.13;1.17;;;17.30;66.90;;;;;;5019784;28;20045;-75
2022/05/26 00:19:12;;;;;;;5.22;1.33;;;17.30;67.00;;;;;;5035620;28;20495;-77
2022/05/26 00:21:38;;;;;;;5.13;1.27;;;17.30;67.20;;;;;;5035356;28;20029;-77
2022/05/26 00:24:05;;;;;;;6.45;1.38;;;17.30;67.50;;;;;;5034081;28;20041;-75
2022/05/26 00:26:30;;;;;;;4.18;1.15;;;17.30;67.60;;;;;;5015759;28;20026;-75
2022/05/26 00:28:59;;;;;;;9.88;1.35;;;17.30;67.70;;;;;;5015222;28;20490;-75
2022/05/26 00:31:24;;;;;;;4.07;1.60;;;17.30;67.50;;;;;;5015434;28;20034;-77
2022/05/26 00:33:50;;;;;;;8.07;1.67;;;17.20;68.10;;;;;;5031097;28;20482;-75
2022/05/26 00:36:17;;;;;;;6.72;1.55;;;17.20;68.20;;;;;;5035136;28;20100;-78
2022/05/26 00:38:43;;;;;;;6.35;1.58;;;17.20;68.10;;;;;;5032418;28;20018;-75
2022/05/26 00:41:14;;;;;;;3.95;1.08;;;17.20;68.30;;;;;;5013950;28;20095;-75
2022/05/26 00:43:44;;;;;;;6.55;1.80;;;17.20;68.50;;;;;;5013529;28;20022;-75
2022/05/26 00:46:21;;;;;;;6.80;1.30;;;17.20;68.50;;;;;;5013881;28;20040;-75
2022/05/26 00:48:53;;;;;;;3.08;1.00;;;17.10;68.30;;;;;;5014950;28;20033;-75
2022/05/26 00:51:35;;;;;;;5.38;1.73;;;17.20;68.00;;;;;;5013747;28;20057;-75
2022/05/26 00:54:07;;;;;;;5.78;1.50;;;17.20;67.80;;;;;;5030344;28;20129;-75
2022/05/26 00:56:40;;;;;;;2.95;1.30;;;17.20;67.80;;;;;;5014818;28;20127;-75
2022/05/26 00:59:32;;;;;;;4.15;1.17;;;17.20;67.80;;;;;;5014316;28;20033;-75
2022/05/26 01:01:58;;;;;;;5.30;1.60;;;17.20;67.70;;;;;;5014797;28;20033;-77
2022/05/26 01:04:27;;;;;;;2.08;0.98;;;17.20;67.60;;;;;;5013619;28;20056;-75
2022/05/26 01:07:05;;;;;;;4.95;1.25;;;17.20;67.60;;;;;;5031259;28;20171;-74
2022/05/26 01:09:31;;;;;;;1.85;1.35;;;17.10;67.60;;;;;;5049984;28;20040;-75
2022/05/26 01:11:56;;;;;;;5.35;0.90;;;17.20;67.40;;;;;;5034383;28;20026;-77
2022/05/26 01:14:31;;;;;;;2.78;1.00;;;17.20;67.40;;;;;;5033898;28;20018;-75
2022/05/26 01:17:27;;;;;;;3.80;0.88;;;17.10;67.20;;;;;;5014653;28;20026;-75
2022/05/26 01:20:09;;;;;;;3.53;1.10;;;17.10;67.40;;;;;;5014782;28;20033;-75
2022/05/26 01:22:54;;;;;;;3.67;1.38;;;17.10;67.30;;;;;;5020134;28;20491;-77
2022/05/26 01:25:22;;;;;;;1.35;0.85;;;17.10;67.50;;;;;;5022127;28;20039;-75
2022/05/26 01:28:24;;;;;;;4.25;1.15;;;17.10;67.60;;;;;;5031284;28;20036;-75
2022/05/26 01:31:35;;;;;;;3.38;0.93;;;17.10;67.80;;;;;;5034080;28;20040;-76
2022/05/26 01:34:10;;;;;;;5.25;0.85;;;17.00;67.80;;;;;;5038811;28;20470;-77
2022/05/26 01:37:03;;;;;;;1.20;0.60;;;17.00;68.10;;;;;;5034035;28;20075;-77
2022/05/26 01:39:40;;;;;;;0.80;0.45;;;17.00;67.60;;;;;;5033799;28;20109;-77
2022/05/26 01:42:52;;;;;;;1.67;0.40;;;16.90;67.70;;;;;;5018318;28;20037;-77
2022/05/26 01:45:30;;;;;;;0.50;0.40;;;16.90;67.70;;;;;;5020373;28;20708;-77
2022/05/26 01:48:43;;;;;;;3.08;0.50;;;16.90;67.70;;;;;;5028452;28;20034;-77
2022/05/26 01:51:31;;;;;;;2.80;0.77;;;16.80;67.80;;;;;;5014037;28;20456;-76
2022/05/26 01:54:14;;;;;;;4.35;0.50;;;16.80;68.10;;;;;;5013297;28;20026;-76
2022/05/26 01:56:55;;;;;;;2.20;0.65;;;16.80;68.50;;;;;;5013978;28;20046;-77
2022/05/26 01:59:46;;;;;;;4.50;0.80;;;16.80;68.80;;;;;;5013563;28;20026;-77
2022/05/26 02:02:26;;;;;;;4.60;0.80;;;16.80;68.80;;;;;;5013827;28;20042;-77
2022/05/26 02:05:04;;;;;;;1.50;0.63;;;16.70;68.90;;;;;;5013908;28;20026;-77
2022/05/26 02:07:48;;;;;;;3.50;0.75;;;16.70;69.40;;;;;;5012541;28;20431;-77
2022/05/26 02:10:37;;;;;;;2.78;0.70;;;16.70;69.20;;;;;;5012851;28;20514;-76
2022/05/26 02:13:07;;;;;;;7.55;0.93;;;16.70;69.10;;;;;;5028686;28;20041;-77
2022/05/26 02:15:47;;;;;;;1.67;0.70;;;16.70;69.10;;;;;;5013860;28;20026;-77
2022/05/26 02:18:25;;;;;;;1.53;0.60;;;16.70;69.00;;;;;;5011807;28;20041;-77
2022/05/26 02:20:58;;;;;;;4.35;0.80;;;16.70;69.30;;;;;;5022239;28;20279;-77
2022/05/26 02:23:31;;;;;;;1.13;0.57;;;16.70;69.10;;;;;;5033258;28;20052;-76
2022/05/26 02:25:59;;;;;;;1.35;0.80;;;16.70;69.10;;;;;;5032238;28;20534;-77
2022/05/26 02:29:50;;;;;;;1.90;0.60;;;16.70;69.50;;;;;;5016985;28;20030;-77
2022/05/26 02:31:18;;;;;;;1.58;0.85;;;16.70;69.60;;;;;;5013495;28;20538;-77
2022/05/26 02:33:58;;;;;;;;;;;;;;;;;;;;;
2022/05/26 02:36:27;;;;;;;1.42;0.80;;;16.60;70.00;;;;;;5017244;28;20326;-75
2022/05/26 02:38:53;;;;;;;2.35;0.70;;;16.40;70.60;;;;;;5015777;28;20038;-75
2022/05/26 02:41:19;;;;;;;1.67;0.73;;;16.30;70.80;;;;;;5017345;28;20052;-76
2022/05/26 02:43:45;;;;;;;1.92;0.85;;;16.40;70.70;;;;;;5020371;28;20042;-76
2022/05/26 02:46:31;;;;;;;1.73;0.55;;;16.40;70.60;;;;;;5037264;28;20109;-75
2022/05/26 02:49:15;;;;;;;2.95;0.70;;;16.40;70.50;;;;;;5029477;28;20451;-75
2022/05/26 02:52:06;;;;;;;3.60;0.90;;;16.40;70.60;;;;;;5023152;28;20129;-75
2022/05/26 02:55:00;;;;;;;3.40;0.98;;;16.50;70.50;;;;;;5016274;28;20029;-75
2022/05/26 02:57:38;;;;;;;2.90;0.93;;;16.50;70.20;;;;;;5016920;28;20042;-75
2022/05/26 03:00:15;;;;;;;3.38;0.73;;;16.50;70.50;;;;;;5018411;28;20024;-75
2022/05/26 03:02:52;;;;;;;2.92;0.60;;;16.30;70.80;;;;;;5036932;28;20029;-75
2022/05/26 03:05:26;;;;;;;1.77;0.93;;;16.30;71.00;;;;;;5036221;28;20057;-75
2022/05/26 03:08:15;;;;;;;;;;;;;;;;;;;;;
2022/05/26 03:10:48;;;;;;;1.00;0.65;;;16.30;70.90;;;;;;5017338;28;20702;-75
2022/05/26 03:13:13;;;;;;;1.63;1.05;;;16.30;70.60;;;;;;5016878;28;20176;-75
2022/05/26 03:15:40;;;;;;;3.60;0.98;;;16.30;70.70;;;;;;5016371;28;20018;-75
2022/05/26 03:18:06;;;;;;;6.90;1.02;;;16.30;70.50;;;;;;5016925;28;20089;-75
2022/05/26 03:20:32;;;;;;;1.30;0.80;;;16.40;70.50;;;;;;5018225;28;20120;-75
2022/05/26 03:22:58;;;;;;;4.45;0.93;;;16.30;70.90;;;;;;5033964;28;20076;-76
2022/05/26 03:25:27;;;;;;;1.17;0.70;;;16.30;70.90;;;;;;5036555;28;20036;-75
2022/05/26 03:27:53;;;;;;;5.47;0.98;;;16.30;70.50;;;;;;5031027;28;20030;-76
2022/05/26 03:30:19;;;;;;;5.43;0.80;;;16.40;70.20;;;;;;5016649;28;20022;-75
2022/05/26 03:32:46;;;;;;;6.43;1.00;;;16.40;70.20;;;;;;5023027;28;20116;-75
2022/05/26 03:40:51;;;;;;;2.83;0.82;;;16.40;70.00;;;;;;5016545;28;20535;-75
2022/05/26 03:43:17;;;;;;;1.20;0.43;;;16.40;69.90;;;;;;5016236;28;20473;-75
2022/05/26 03:45:44;;;;;;;1.35;0.57;;;16.40;69.90;;;;;;5016387;28;20018;-76
2022/05/26 03:48:10;;;;;;;2.20;0.55;;;16.40;69.80;;;;;;5016450;28;20392;-75
2022/05/26 03:50:36;;;;;;;1.77;0.70;;;16.40;69.80;;;;;;5031096;28;20032;-75
2022/05/26 03:53:03;;;;;;;2.10;0.68;;;16.40;69.60;;;;;;5014885;28;20514;-75
2022/05/26 03:55:29;;;;;;;1.73;0.68;;;16.40;69.80;;;;;;5016026;28;20088;-75
2022/05/26 03:57:54;;;;;;;3.90;0.68;;;16.40;69.90;;;;;;5016291;28;20022;-75
2022/05/26 04:00:23;;;;;;;1.85;0.60;;;16.40;69.60;;;;;;5016348;28;20500;-75
2022/05/26 04:02:50;;;;;;;3.47;0.77;;;16.30;69.70;;;;;;5031185;28;20096;-75
2022/05/26 04:05:17;;;;;;;1.15;0.50;;;16.30;69.70;;;;;;5015990;28;20072;-76
2022/05/26 04:07:43;;;;;;;1.42;0.50;;;16.30;69.60;;;;;;5014735;28;20034;-75
2022/05/26 04:10:11;;;;;;;0.73;0.32;;;16.30;69.50;;;;;;5015785;28;20036;-75
2022/05/26 04:12:38;;;;;;;1.65;0.50;;;16.30;69.50;;;;;;5023663;28;20034;-75
2022/05/26 04:15:06;;;;;;;2.50;0.50;;;16.30;69.50;;;;;;5035520;28;20506;-76
2022/05/26 04:17:32;;;;;;;1.50;0.40;;;16.40;69.50;;;;;;5050768;28;20026;-76
2022/05/26 04:19:59;;;;;;;0.75;0.40;;;16.30;69.30;;;;;;5035372;28;20482;-75
2022/05/26 04:22:26;;;;;;;2.20;0.50;;;16.40;69.30;;;;;;5033453;28;20523;-75
2022/05/26 04:24:58;;;;;;;1.58;0.57;;;16.30;69.40;;;;;;5035451;28;20036;-75
2022/05/26 04:27:27;;;;;;;0.80;0.40;;;16.30;69.40;;;;;;5029269;28;20030;-75
2022/05/26 04:29:53;;;;;;;0.47;0.40;;;16.40;69.40;;;;;;5015474;28;20084;-75
2022/05/26 04:32:21;;;;;;;3.20;1.00;;;16.30;69.20;;;;;;5018695;28;20021;-75
2022/05/26 04:34:48;;;;;;;1.33;0.60;;;16.30;69.70;;;;;;5034076;28;20032;-75
2022/05/26 04:37:24;;;;;;;1.10;0.80;;;16.30;69.60;;;;;;5030005;28;20488;-75
2022/05/26 04:39:53;;;;;;;2.47;0.70;;;16.30;69.90;;;;;;5015367;28;20026;-75
2022/05/26 04:42:19;;;;;;;0.98;0.50;;;16.30;70.00;;;;;;5013853;28;20524;-76
2022/05/26 04:44:46;;;;;;;0.70;0.40;;;16.30;69.80;;;;;;5046283;28;20438;-75
2022/05/26 04:47:13;;;;;;;0.85;0.60;;;16.30;69.70;;;;;;5015324;28;20083;-75
2022/05/26 04:49:39;;;;;;;0.43;0.38;;;16.40;69.50;;;;;;5015037;28;20165;-75
2022/05/26 04:52:10;;;;;;;3.28;0.40;;;16.40;69.40;;;;;;5013500;28;20033;-76
2022/05/26 04:54:36;;;;;;;1.15;0.52;;;16.40;69.20;;;;;;5015361;28;20468;-75
2022/05/26 04:57:03;;;;;;;0.57;0.30;;;16.40;69.30;;;;;;5015007;28;20050;-75
2022/05/26 04:59:30;;;;;;;0.60;0.32;;;16.40;69.10;;;;;;5015050;28;20033;-76
2022/05/26 05:01:56;;;;;;;1.55;0.60;;;16.40;69.10;;;;;;5014254;28;20104;-76
2022/05/26 05:04:28;;;;;;;2.60;0.40;;;16.40;69.30;;;;;;5029851;28;20068;-75
2022/05/26 05:06:54;;;;;;;1.00;0.50;;;16.40;69.20;;;;;;5033182;28;20083;-75
2022/05/26 05:09:21;;;;;;;1.58;0.50;;;16.40;69.20;;;;;;5018398;28;20045;-76
2022/05/26 05:11:47;;;;;;;1.92;0.40;;;16.40;69.30;;;;;;5022993;28;20502;-75
2022/05/26 05:14:13;;;;;;;1.77;0.40;;;16.50;69.00;;;;;;5033175;28;20029;-75
2022/05/26 05:16:44;;;;;;;1.75;0.47;;;16.50;69.10;;;;;;5049917;28;20026;-75
2022/05/26 05:19:11;;;;;;;1.05;0.50;;;16.50;68.90;;;;;;5034168;28;20054;-75
2022/05/26 05:21:45;;;;;;;1.55;0.50;;;16.50;69.10;;;;;;5027944;28;20036;-75
2022/05/26 05:24:19;;;;;;;2.67;0.50;;;16.70;68.80;;;;;;5014067;28;20061;-76
2022/05/26 05:26:50;;;;;;;1.98;0.60;;;16.80;68.80;;;;;;5014189;28;20042;-76
2022/05/26 05:29:18;;;;;;;0.85;0.30;;;16.70;69.20;;;;;;5029550;28;20055;-75
2022/05/26 05:31:57;;;;;;;1.30;0.50;;;16.70;69.40;;;;;;5032180;28;20025;-76
2022/05/26 05:34:36;;;;;;;1.42;0.52;;;16.60;69.70;;;;;;5014128;28;20030;-76
2022/05/26 05:37:02;;;;;;;1.15;0.65;;;16.60;69.60;;;;;;5019385;28;20021;-76
2022/05/26 05:39:28;;;;;;;0.50;0.40;;;16.70;69.40;;;;;;5033265;28;20484;-75
2022/05/26 05:41:55;;;;;;;1.10;0.40;;;16.80;69.30;;;;;;5033333;28;20064;-73
2022/05/26 05:44:22;;;;;;;0.60;0.40;;;16.80;69.00;;;;;;5028017;28;20041;-75
2022/05/26 05:46:53;;;;;;;0.63;0.32;;;16.80;69.00;;;;;;5041327;28;20095;-74
2022/05/26 05:49:24;;;;;;;0.75;0.52;;;16.80;69.20;;;;;;5049318;28;20048;-75
2022/05/26 05:51:51;;;;;;;1.77;0.57;;;16.80;69.30;;;;;;5033367;28;20021;-75
2022/05/26 05:54:18;;;;;;;0.77;0.63;;;16.80;69.40;;;;;;5030605;28;20567;-74
2022/05/26 05:56:45;;;;;;;3.03;1.20;;;16.80;69.10;;;;;;5031940;28;20057;-75
2022/05/26 05:59:11;;;;;;;2.85;0.73;;;16.90;68.90;;;;;;5032043;28;20021;-76
2022/05/26 06:01:37;;;;;;;3.38;0.70;;;16.90;68.80;;;;;;5032738;28;20034;-74
2022/05/26 06:04:03;;;;;;;1.45;0.60;;;16.90;68.60;;;;;;5032797;28;20018;-75
2022/05/26 06:06:35;;;;;;;3.00;0.63;;;16.90;68.80;;;;;;5046030;28;20040;-77
2022/05/26 06:09:01;;;;;;;0.75;0.50;;;17.00;68.70;;;;;;5029845;28;20089;-75
2022/05/26 06:11:27;;;;;;;2.45;0.63;;;16.90;68.90;;;;;;5032573;28;20072;-75
2022/05/26 06:13:54;;;;;;;1.10;0.60;;;16.80;69.30;;;;;;5029487;28;20029;-75
2022/05/26 06:16:20;;;;;;;1.48;0.40;;;16.80;69.40;;;;;;5029144;28;20013;-77
2022/05/26 06:18:48;;;;;;;1.00;0.63;;;16.90;69.20;;;;;;5030924;28;20639;-80
2022/05/26 06:21:13;;;;;;;1.95;0.60;;;16.90;69.40;;;;;;5056643;28;20037;-76
2022/05/26 06:23:39;;;;;;;2.80;0.68;;;17.00;69.20;;;;;;5031127;28;20034;-76
2022/05/26 06:26:05;;;;;;;3.92;0.70;;;17.00;69.00;;;;;;5031325;28;20048;-76
2022/05/26 06:31:16;;;;;;;4.63;1.17;;;17.20;68.70;;;;;;5031890;28;20091;-76
2022/05/26 06:39:11;;;;;;;1.38;0.70;;;17.40;68.30;;;;;;5032242;28;20123;-76
2022/05/26 06:44:21;;;;;;;1.50;0.68;;;17.50;68.10;;;;;;5030698;28;20043;-76
2022/05/26 06:46:47;;;;;;;2.22;0.57;;;17.60;68.00;;;;;;5030072;28;20033;-76
2022/05/26 06:49:12;;;;;;;1.48;0.65;;;17.80;67.50;;;;;;5026225;28;20037;-77
2022/05/26 06:51:39;;;;;;;1.15;0.57;;;17.90;67.10;;;;;;5031083;28;20029;-78
2022/05/26 06:54:05;;;;;;;3.92;0.63;;;17.90;66.30;;;;;;5031549;28;20040;-77
2022/05/26 06:56:31;;;;;;;1.80;0.43;;;18.10;66.50;;;;;;5028184;28;20064;-76
2022/05/26 06:58:57;;;;;;;0.65;0.45;;;18.20;66.20;;;;;;5013090;28;20484;-76
2022/05/26 07:01:23;;;;;;;2.08;0.70;;;18.30;65.70;;;;;;5023306;28;20052;-77
2022/05/26 07:03:52;;;;;;;0.82;0.50;;;18.30;65.60;;;;;;5032665;28;20065;-76
2022/05/26 07:06:21;;;;;;;1.95;0.80;;;18.40;65.40;;;;;;5030652;28;20703;-76
2022/05/26 07:08:47;;;;;;;2.75;0.93;;;18.50;65.00;;;;;;5031460;28;20036;-77
2022/05/26 07:11:14;;;;;;;2.85;0.50;;;18.60;64.60;;;;;;5028927;28;20032;-76
2022/05/26 07:13:40;;;;;;;2.70;0.60;;;18.70;64.00;;;;;;5028484;28;20063;-76
2022/05/26 07:16:07;;;;;;;2.05;0.60;;;18.70;63.70;;;;;;5025563;28;20025;-77
2022/05/26 07:18:33;;;;;;;3.72;0.80;;;18.60;64.30;;;;;;5027315;28;20111;-76
2022/05/26 07:21:06;;;;;;;1.63;0.60;;;18.70;64.10;;;;;;5032650;28;20029;-77
2022/05/26 07:23:34;;;;;;;1.10;0.57;;;18.70;62.90;;;;;;5020666;28;20037;-76
2022/05/26 07:26:04;;;;;;;3.58;0.95;;;18.70;64.00;;;;;;5034213;28;20041;-76
2022/05/26 07:28:29;;;;;;;;;;;18.80;63.10;;;;;;5030150;28;20117;-76
2022/05/26 07:30:55;;;;;;;1.95;0.60;;;18.80;63.50;;;;;;5027156;28;20326;-76
2022/05/26 07:33:21;;;;;;;4.20;0.70;;;18.80;63.30;;;;;;5033290;28;20459;-77
2022/05/26 07:35:46;;;;;;;1.60;0.57;;;18.80;63.40;;;;;;5028107;28;20411;-76
2022/05/26 07:43:42;;;;;;;2.38;0.70;;;18.90;63.40;;;;;;5024765;28;20641;-76
2022/05/26 07:46:09;;;;;;;0.90;0.45;;;19.10;63.00;;;;;;5025232;28;20030;-76
2022/05/26 07:48:35;;;;;;;2.20;0.82;;;19.00;62.70;;;;;;5027254;28;20044;-76
2022/05/26 07:51:00;;;;;;;1.48;0.60;;;19.10;62.70;;;;;;5024228;28;20109;-76
2022/05/26 07:53:26;;;;;;;1.83;0.65;;;19.10;62.20;;;;;;5020432;28;20029;-74
2022/05/26 07:55:51;;;;;;;1.83;0.70;;;18.90;62.80;;;;;;5034044;28;20045;-76
2022/05/26 07:58:17;;;;;;;1.73;0.93;;;18.90;62.20;;;;;;5026846;28;20093;-76
2022/05/26 08:00:43;;;;;;;1.80;0.50;;;18.90;62.30;;;;;;5023805;28;20037;-76
2022/05/26 08:03:09;;;;;;;2.83;0.47;;;18.80;61.70;;;;;;5025486;28;20033;-76
2022/05/26 08:05:36;;;;;;;1.50;0.50;;;18.80;62.00;;;;;;5023750;28;20064;-73
2022/05/26 08:08:02;;;;;;;1.70;0.57;;;18.80;62.40;;;;;;5032994;28;20116;-76
2022/05/26 08:10:28;;;;;;;1.90;0.55;;;18.80;62.40;;;;;;5023757;28;20136;-74
2022/05/26 08:12:53;;;;;;;3.28;0.70;;;18.70;62.60;;;;;;5036996;28;20053;-75
2022/05/26 08:15:19;;;;;;;2.00;0.90;;;18.80;62.80;;;;;;5033204;28;20053;-76
2022/05/26 08:17:45;;;;;;;4.10;0.50;;;18.80;62.40;;;;;;5025780;28;20042;-76
2022/05/26 08:20:11;;;;;;;1.02;0.40;;;18.70;62.00;;;;;;5032447;28;20032;-76
2022/05/26 08:22:37;;;;;;;2.00;0.70;;;18.60;62.30;;;;;;5024611;28;20112;-76
2022/05/26 08:25:04;;;;;;;1.33;0.60;;;18.60;62.40;;;;;;5025090;28;20103;-77
2022/05/26 08:27:29;;;;;;;4.13;0.70;;;18.60;62.60;;;;;;5018008;28;20598;-77
2022/05/26 08:29:56;;;;;;;2.05;0.60;;;18.60;62.70;;;;;;5039146;28;20086;-77
2022/05/26 08:32:23;;;;;;;2.95;0.68;;;18.60;62.70;;;;;;5030874;28;20060;-76
2022/05/26 08:34:49;;;;;;;2.97;0.68;;;18.70;63.20;;;;;;5029571;28;20026;-78
2022/05/26 08:37:19;;;;;;;3.40;0.65;;;18.70;62.60;;;;;;5060256;28;20038;-76
2022/05/26 08:39:45;;;;;;;3.13;0.60;;;18.70;62.50;;;;;;5049475;28;20035;-76
2022/05/26 08:42:25;;;;;;;1.15;0.65;;;18.60;63.10;;;;;;5033190;28;20692;-76
2022/05/26 08:44:55;;;;;;;1.60;0.75;;;18.60;63.50;;;;;;5023898;28;20034;-77
2022/05/26 08:47:32;;;;;;;1.42;0.73;;;18.60;63.20;;;;;;5043327;28;20107;-77
2022/05/26 08:50:18;;;;;;;3.47;0.90;;;18.70;62.90;;;;;;5032972;28;20026;-77
2022/05/26 08:52:49;;;;;;;3.15;0.70;;;18.70;62.90;;;;;;5029958;28;20029;-78
2022/05/26 08:55:21;;;;;;;1.85;0.80;;;18.80;62.90;;;;;;5028730;28;20045;-77
2022/05/26 08:57:53;;;;;;;0.82;0.57;;;18.90;62.70;;;;;;5027469;28;20517;-77
2022/05/26 09:00:21;;;;;;;1.92;0.77;;;18.80;62.10;;;;;;5031501;28;20021;-78
2022/05/26 09:02:53;;;;;;;2.92;0.68;;;18.80;62.00;;;;;;5019760;28;20057;-77
2022/05/26 09:05:20;;;;;;;2.63;0.90;;;18.80;61.90;;;;;;5048739;28;20021;-77
2022/05/26 09:13:58;;;;;;;2.00;0.70;;;19.00;62.00;;;;;;5032732;28;20544;-77
2022/05/26 09:16:27;;;;;;;1.77;0.75;;;19.10;61.30;;;;;;5052178;28;20385;-77
2022/05/26 09:19:17;;;;;;;2.27;0.80;;;19.10;61.50;;;;;;5012783;28;20176;-77
2022/05/26 09:21:45;;;;;;;3.72;0.70;;;19.20;61.30;;;;;;5018253;28;20046;-76
2022/05/26 09:24:41;;;;;;;1.30;0.60;;;19.10;61.90;;;;;;5027355;28;20017;-77
2022/05/26 09:27:27;;;;;;;1.25;0.52;;;19.10;61.70;;;;;;5024070;28;20025;-77
2022/05/26 09:29:53;;;;;;;3.50;1.05;;;19.00;62.00;;;;;;5028142;28;20029;-77
2022/05/26 09:32:28;;;;;;;2.53;0.68;;;18.90;62.00;;;;;;5031886;28;20392;-77
2022/05/26 09:35:11;;;;;;;1.10;0.82;;;18.90;62.60;;;;;;5026063;28;20051;-77
2022/05/26 09:37:51;;;;;;;2.30;0.95;;;18.90;62.30;;;;;;5029247;28;20030;-77
2022/05/26 09:40:30;;;;;;;1.60;0.90;;;19.00;62.20;;;;;;5031736;28;20017;-77
2022/05/26 09:43:15;;;;;;;1.60;0.80;;;19.00;61.90;;;;;;5026548;28;20034;-76
2022/05/26 09:45:53;;;;;;;1.25;0.82;;;19.10;62.00;;;;;;5027337;28;20519;-77
2022/05/26 09:48:21;;;;;;;4.10;1.55;;;19.20;61.10;;;;;;5027978;28;20641;-77
2022/05/26 09:51:24;;;;;;;1.63;0.80;;;19.30;61.50;;;;;;5028565;28;20853;-77
2022/05/26 09:53:52;;;;;;;1.80;1.17;;;19.30;61.10;;;;;;5029526;28;20110;-77
2022/05/26 09:56:40;;;;;;;1.38;0.70;;;19.30;61.00;;;;;;5050709;28;20064;-77
2022/05/26 09:59:29;;;;;;;2.45;0.90;;;19.40;60.80;;;;;;5022440;28;20598;-77
2022/05/26 10:02:18;;;;;;;3.20;0.70;;;19.30;60.90;;;;;;5012263;28;20083;-77
2022/05/26 10:05:20;;;;;;;1.75;0.57;;;19.40;61.00;;;;;;5026259;28;20088;-77
2022/05/26 10:08:05;;;;;;;4.10;0.90;;;19.50;60.80;;;;;;5027926;28;20687;-77
2022/05/26 10:10:44;;;;;;;1.27;0.70;;;19.60;60.40;;;;;;5050949;28;20029;-77
2022/05/26 10:13:28;;;;;;;0.97;0.50;;;19.70;59.10;;;;;;5018236;28;20025;-77
2022/05/26 10:16:14;;;;;;;2.05;1.08;;;19.80;58.80;;;;;;5041254;28;20692;-77
2022/05/26 10:18:52;;;;;;;1.65;0.60;;;19.80;58.50;;;;;;5031120;28;20476;-77
2022/05/26 10:21:27;;;;;;;2.35;0.50;;;19.80;58.80;;;;;;5019603;28;20025;-77
2022/05/26 10:24:11;;;;;;;1.30;0.50;;;19.80;59.30;;;;;;5024541;28;20049;-77
2022/05/26 10:26:56;;;;;;;1.35;0.50;;;19.80;60.00;;;;;;5021024;28;20029;-76
2022/05/26 10:29:47;;;;;;;2.05;0.93;;;19.70;60.00;;;;;;5015391;28;20045;-78
2022/05/26 10:32:43;;;;;;;2.05;1.00;;;19.60;59.70;;;;;;5025301;28;20496;-76
2022/05/26 10:35:44;;;;;;;1.13;0.65;;;19.50;60.50;;;;;;5031553;28;20060;-76
2022/05/26 10:38:13;;;;;;;1.55;0.70;;;19.60;60.40;;;;;;5017059;28;20672;-77
2022/05/26 10:41:06;;;;;;;2.47;1.17;;;19.80;60.10;;;;;;5031419;28;20039;-76
2022/05/26 10:43:43;;;;;;;2.10;1.23;;;20.00;60.00;;;;;;5032255;28;20025;-76
2022/05/26 10:46:09;;;;;;;1.35;0.70;;;20.30;59.00;;;;;;5022524;28;20030;-78
2022/05/26 10:49:03;;;;;;;1.45;0.95;;;20.70;58.80;;;;;;5029523;28;20033;-77
2022/05/26 10:51:55;;;;;;;3.17;1.08;;;20.80;56.70;;;;;;5028604;28;20029;-78
2022/05/26 10:54:36;;;;;;;2.10;0.98;;;20.90;57.00;;;;;;5028062;28;20434;-76
2022/05/26 10:57:17;;;;;;;3.97;0.80;;;21.00;56.00;;;;;;5022924;28;20045;-76
2022/05/26 11:00:03;;;;;;;1.80;0.70;;;21.00;56.90;;;;;;5031487;28;20064;-75
2022/05/26 11:02:39;;;;;;;1.35;0.65;;;21.10;56.60;;;;;;5038687;28;20033;-79
2022/05/26 11:05:14;;;;;;;1.60;0.85;;;21.10;55.90;;;;;;5035415;28;20542;-75
2022/05/26 11:07:48;;;;;;;2.47;1.15;;;21.00;56.40;;;;;;5027917;28;20432;-76
2022/05/26 11:10:43;;;;;;;1.48;0.80;;;20.80;56.30;;;;;;5039074;28;20071;-76
2022/05/26 11:13:29;;;;;;;2.28;0.95;;;20.70;56.30;;;;;;5036644;28;20029;-77
2022/05/26 11:19:04;;;;;;;1.52;0.80;;;20.50;58.10;;;;;;5017054;28;20068;-75
2022/05/26 11:21:31;;;;;;;1.52;0.65;;;20.40;57.40;;;;;;5041146;28;20030;-76
2022/05/26 11:23:56;;;;;;;1.65;0.90;;;20.40;57.80;;;;;;5032272;28;20136;-77
2022/05/26 11:26:28;;;;;;;2.92;0.90;;;20.50;58.20;;;;;;5024885;28;20044;-75
2022/05/26 11:29:10;;;;;;;3.03;1.33;;;20.40;58.00;;;;;;5033462;28;20108;-77
2022/05/26 11:37:40;;;;;;;3.40;1.40;;;20.60;58.00;;;;;;5033499;28;20037;-76
2022/05/26 11:40:12;;;;;;;2.20;1.20;;;20.30;58.30;;;;;;5016700;28;20079;-75
2022/05/26 11:42:51;;;;;;;2.15;1.20;;;20.20;58.60;;;;;;5035090;28;20142;-75
2022/05/26 11:45:29;;;;;;;3.28;1.20;;;20.20;59.40;;;;;;5033826;28;20037;-75
2022/05/26 11:48:00;;;;;;;2.20;1.10;;;20.20;59.40;;;;;;5036072;28;20027;-79
2022/05/26 11:50:48;;;;;;;3.58;1.33;;;20.30;58.70;;;;;;5034880;28;20030;-82
2022/05/26 11:53:35;;;;;;;2.33;1.00;;;20.20;59.40;;;;;;5035183;28;20032;-76
2022/05/26 11:56:04;;;;;;;2.35;1.25;;;20.20;59.60;;;;;;5034805;28;20072;-82
2022/05/26 11:58:40;;;;;;;1.70;1.08;;;20.30;59.30;;;;;;5042452;28;20575;-78
2022/05/26 12:01:21;;;;;;;2.92;1.30;;;20.40;58.80;;;;;;5025647;28;20037;-76
2022/05/26 12:03:56;;;;;;;3.63;1.13;;;20.30;58.80;;;;;;5024792;28;20048;-76
2022/05/26 12:06:37;;;;;;;2.90;1.30;;;20.30;58.50;;;;;;5030550;28;20026;-76
2022/05/26 12:09:28;;;;;;;2.78;1.20;;;20.40;58.80;;;;;;5029301;28;20029;-76
2022/05/26 12:12:04;;;;;;;3.90;1.50;;;20.70;58.00;;;;;;5030548;28;20040;-76
2022/05/26 12:14:34;;;;;;;1.42;1.00;;;20.90;57.30;;;;;;5029742;28;20025;-76
2022/05/26 12:17:37;;;;;;;2.53;1.42;;;21.10;57.30;;;;;;5018996;28;20792;-76
2022/05/26 12:20:25;;;;;;;1.98;1.10;;;21.20;56.50;;;;;;5029962;28;20042;-76
2022/05/26 12:22:53;;;;;;;1.70;1.10;;;21.10;56.50;;;;;;5032461;28;20036;-76
2022/05/26 12:25:19;;;;;;;1.48;1.10;;;21.00;56.50;;;;;;5031372;28;20022;-76
2022/05/26 12:28:10;;;;;;;2.33;1.10;;;20.90;57.50;;;;;;5030879;28;20102;-76
2022/05/26 12:30:44;;;;;;;2.00;1.20;;;20.80;57.60;;;;;;5029580;28;20037;-76
2022/05/26 12:33:19;;;;;;;1.33;1.00;;;20.80;57.40;;;;;;5032957;28;20029;-76
2022/05/26 12:36:22;;;;;;;2.75;1.25;;;20.50;58.00;;;;;;5031610;28;20029;-76
2022/05/26 12:39:23;;;;;;;3.38;1.23;;;20.30;57.90;;;;;;5053818;28;20344;-76
2022/05/26 12:42:04;;;;;;;3.63;1.30;;;20.40;58.20;;;;;;5033952;28;20053;-76
2022/05/26 12:45:14;;;;;;;2.78;1.23;;;20.50;57.80;;;;;;5031268;28;20492;-75
2022/05/26 12:48:02;;;;;;;2.63;1.50;;;20.50;57.70;;;;;;5033256;28;20026;-76
2022/05/26 12:50:28;;;;;;;2.05;1.63;;;20.40;57.50;;;;;;5015004;28;20037;-76
2022/05/26 12:53:01;;;;;;;2.80;1.60;;;20.70;57.70;;;;;;5031950;28;20036;-76
2022/05/26 12:55:35;;;;;;;1.70;1.40;;;20.80;58.30;;;;;;5032057;28;20525;-76
2022/05/26 12:58:09;;;;;;;2.90;1.60;;;20.80;57.50;;;;;;5030770;28;20040;-76
2022/05/26 13:00:44;;;;;;;5.47;1.50;;;20.90;57.70;;;;;;5024465;28;20068;-76
2022/05/26 13:03:12;;;;;;;2.95;1.30;;;21.10;56.30;;;;;;5031602;28;20056;-76
2022/05/26 13:05:41;;;;;;;1.88;1.10;;;21.30;56.10;;;;;;5028479;28;20033;-76
2022/05/26 13:08:16;;;;;;;3.22;1.60;;;21.40;56.30;;;;;;5032139;28;20036;-76
2022/05/26 13:10:43;;;;;;;2.10;1.33;;;21.40;55.70;;;;;;5028526;28;20021;-76
2022/05/26 13:13:27;;;;;;;1.75;1.17;;;21.30;55.40;;;;;;5019599;28;20034;-77
2022/05/26 13:15:53;;;;;;;1.88;1.35;;;21.40;55.70;;;;;;5047434;28;20022;-75
2022/05/26 13:18:24;;;;;;;1.88;1.27;;;21.40;56.00;;;;;;5031692;28;20029;-75
2022/05/26 13:20:50;;;;;;;2.83;1.30;;;21.50;55.10;;;;;;5032007;28;20434;-76
2022/05/26 13:23:30;;;;;;;3.15;1.30;;;21.50;55.20;;;;;;5026996;28;20029;-75
2022/05/26 13:26:00;;;;;;;2.30;1.27;;;21.60;55.30;;;;;;5028030;28;20044;-76
2022/05/26 13:28:29;;;;;;;3.40;1.50;;;21.70;54.40;;;;;;5022583;28;20033;-75
2022/05/26 13:33:50;;;;;;;2.90;0.93;;;21.90;54.00;;;;;;5028561;28;20044;-75
2022/05/26 13:36:34;;;;;;;2.22;1.23;;;22.00;54.30;;;;;;5028285;28;20029;-75
2022/05/26 13:39:07;;;;;;;2.45;1.02;;;21.80;54.20;;;;;;5028451;28;20038;-75
2022/05/26 13:41:33;;;;;;;2.25;1.38;;;21.60;55.00;;;;;;5030984;28;20021;-75
2022/05/26 13:44:05;;;;;;;1.52;0.95;;;21.50;54.00;;;;;;5030111;28;20033;-74
2022/05/26 13:46:39;;;;;;;1.35;1.05;;;21.40;55.70;;;;;;5030937;28;20026;-75
2022/05/26 13:49:23;;;;;;;2.22;1.38;;;21.50;55.00;;;;;;5025378;28;20060;-75
2022/05/26 13:51:51;;;;;;;1.60;1.20;;;21.30;53.90;;;;;;5025071;28;20361;-75
2022/05/26 13:54:31;;;;;;;2.88;1.35;;;21.40;55.00;;;;;;5026169;28;20029;-75
2022/05/26 13:57:04;;;;;;;1.92;1.02;;;21.30;54.70;;;;;;5032621;28;20060;-76
2022/05/26 13:59:36;;;;;;;2.97;0.93;;;21.40;55.60;;;;;;5027223;28;20076;-77
2022/05/26 14:02:10;;;;;;;3.35;1.10;;;21.30;54.70;;;;;;5032697;28;20061;-76
2022/05/26 14:04:39;;;;;;;1.30;1.00;;;21.30;54.60;;;;;;5031480;28;20451;-75